sensor_id;sensor_type;location;lat;lon;timestamp;P1;durP1;ratioP1;P2;durP2;ratioP2
63189;SDS011;49286;44.460;26.114;2023-05-24T00:02:04;8.65;;;4.15;;
63189;SDS011;49286;44.460;26.114;2023-05-24T00:04:30;4.93;;;2.90;;
63189;SDS011;49286;44.460;26.114;2023-05-24T00:06:56;7.10;;;4.50;;
63189;SDS011;49286;44.460;26.114;2023-05-24T00:09:22;17.40;;;5.45;;
63189;SDS011;49286;44.460;26.114;2023-05-24T00:11:48;5.10;;;3.22;;
63189;SDS011;49286;44.460;26.114;2023-05-24T00:14:13;5.47;;;4.15;;
63189;SDS011;49286;44.460;26.114;2023-05-24T00:16:39;5.57;;;3.80;;
63189;SDS011;49286;44.460;26.114;2023-05-24T00:19:05;6.57;;;3.60;;
63189;SDS011;49286;44.460;26.114;2023-05-24T00:21:30;4.35;;;3.03;;
63189;SDS011;49286;44.460;26.114;2023-05-24T00:23:58;6.15;;;3.63;;
63189;SDS011;49286;44.460;26.114;2023-05-24T00:26:24;5.80;;;4.32;;
63189;SDS011;49286;44.460;26.114;2023-05-24T00:28:50;6.25;;;3.83;;
63189;SDS011;49286;44.460;26.114;2023-05-24T00:31:15;5.28;;;3.95;;
63189;SDS011;49286;44.460;26.114;2023-05-24T00:33:41;5.13;;;3.58;;
63189;SDS011;49286;44.460;26.114;2023-05-24T00:36:06;5.03;;;3.75;;
63189;SDS011;49286;44.460;26.114;2023-05-24T00:38:32;8.43;;;4.30;;
63189;SDS011;49286;44.460;26.114;2023-05-24T00:40:57;8.43;;;4.63;;
63189;SDS011;49286;44.460;26.114;2023-05-24T00:43:25;7.85;;;4.93;;
63189;SDS011;49286;44.460;26.114;2023-05-24T00:45:55;4.70;;;3.85;;
63189;SDS011;49286;44.460;26.114;2023-05-24T00:48:46;8.38;;;4.95;;
63189;SDS011;49286;44.460;26.114;2023-05-24T00:51:13;5.30;;;3.70;;
63189;SDS011;49286;44.460;26.114;2023-05-24T00:53:40;8.77;;;5.50;;
63189;SDS011;49286;44.460;26.114;2023-05-24T00:56:08;7.53;;;4.15;;
63189;SDS011;49286;44.460;26.114;2023-05-24T00:58:35;5.78;;;4.88;;
63189;SDS011;49286;44.460;26.114;2023-05-24T01:01:01;8.23;;;4.35;;
63189;SDS011;49286;44.460;26.114;2023-05-24T01:03:27;11.88;;;4.32;;
63189;SDS011;49286;44.460;26.114;2023-05-24T01:05:56;8.57;;;4.88;;
63189;SDS011;49286;44.460;26.114;2023-05-24T01:11:05;6.43;;;4.53;;
63189;SDS011;49286;44.460;26.114;2023-05-24T01:18:51;6.82;;;4.70;;
63189;SDS011;49286;44.460;26.114;2023-05-24T01:27:10;5.55;;;3.92;;
63189;SDS011;49286;44.460;26.114;2023-05-24T01:29:37;7.10;;;5.95;;
63189;SDS011;49286;44.460;26.114;2023-05-24T01:32:03;6.78;;;4.43;;
63189;SDS011;49286;44.460;26.114;2023-05-24T01:34:29;10.68;;;4.60;;
63189;SDS011;49286;44.460;26.114;2023-05-24T01:36:55;7.35;;;4.22;;
63189;SDS011;49286;44.460;26.114;2023-05-24T01:39:21;5.18;;;3.75;;
63189;SDS011;49286;44.460;26.114;2023-05-24T01:44:42;11.23;;;5.93;;
63189;SDS011;49286;44.460;26.114;2023-05-24T01:49:43;7.93;;;4.65;;
63189;SDS011;49286;44.460;26.114;2023-05-24T01:52:18;5.75;;;4.40;;
63189;SDS011;49286;44.460;26.114;2023-05-24T01:54:50;7.47;;;4.70;;
63189;SDS011;49286;44.460;26.114;2023-05-24T01:57:19;10.00;;;6.80;;
63189;SDS011;49286;44.460;26.114;2023-05-24T01:59:47;8.57;;;5.03;;
63189;SDS011;49286;44.460;26.114;2023-05-24T02:02:14;5.40;;;4.15;;
63189;SDS011;49286;44.460;26.114;2023-05-24T02:04:39;8.30;;;5.90;;
63189;SDS011;49286;44.460;26.114;2023-05-24T02:07:05;5.78;;;4.05;;
63189;SDS011;49286;44.460;26.114;2023-05-24T02:09:31;8.98;;;4.82;;
63189;SDS011;49286;44.460;26.114;2023-05-24T02:11:56;5.93;;;4.50;;
63189;SDS011;49286;44.460;26.114;2023-05-24T02:14:22;10.35;;;5.60;;
63189;SDS011;49286;44.460;26.114;2023-05-24T02:16:48;16.30;;;6.20;;
63189;SDS011;49286;44.460;26.114;2023-05-24T02:19:14;10.32;;;5.82;;
63189;SDS011;49286;44.460;26.114;2023-05-24T02:21:43;6.78;;;4.03;;
63189;SDS011;49286;44.460;26.114;2023-05-24T02:24:09;8.65;;;5.25;;
63189;SDS011;49286;44.460;26.114;2023-05-24T02:26:37;7.88;;;5.13;;
63189;SDS011;49286;44.460;26.114;2023-05-24T02:29:03;8.38;;;4.93;;
63189;SDS011;49286;44.460;26.114;2023-05-24T02:31:29;9.45;;;6.20;;
63189;SDS011;49286;44.460;26.114;2023-05-24T02:33:55;8.68;;;5.10;;
63189;SDS011;49286;44.460;26.114;2023-05-24T02:36:21;10.32;;;5.63;;
63189;SDS011;49286;44.460;26.114;2023-05-24T02:38:47;7.95;;;4.93;;
63189;SDS011;49286;44.460;26.114;2023-05-24T02:41:13;12.50;;;6.85;;
63189;SDS011;49286;44.460;26.114;2023-05-24T02:43:42;7.03;;;4.95;;
63189;SDS011;49286;44.460;26.114;2023-05-24T02:46:11;11.00;;;5.55;;
63189;SDS011;49286;44.460;26.114;2023-05-24T02:48:37;19.30;;;6.85;;
63189;SDS011;49286;44.460;26.114;2023-05-24T02:51:03;9.38;;;5.63;;
63189;SDS011;49286;44.460;26.114;2023-05-24T02:53:29;8.27;;;5.47;;
63189;SDS011;49286;44.460;26.114;2023-05-24T02:55:55;7.05;;;5.70;;
63189;SDS011;49286;44.460;26.114;2023-05-24T02:58:20;7.32;;;5.47;;
63189;SDS011;49286;44.460;26.114;2023-05-24T03:00:47;10.55;;;5.45;;
63189;SDS011;49286;44.460;26.114;2023-05-24T03:03:12;10.63;;;6.47;;
63189;SDS011;49286;44.460;26.114;2023-05-24T03:05:38;6.63;;;5.30;;
63189;SDS011;49286;44.460;26.114;2023-05-24T03:08:03;9.93;;;4.70;;
63189;SDS011;49286;44.460;26.114;2023-05-24T03:10:30;8.98;;;6.70;;
63189;SDS011;49286;44.460;26.114;2023-05-24T03:12:55;8.55;;;6.10;;
63189;SDS011;49286;44.460;26.114;2023-05-24T03:15:21;7.28;;;5.47;;
63189;SDS011;49286;44.460;26.114;2023-05-24T03:17:47;11.55;;;5.05;;
63189;SDS011;49286;44.460;26.114;2023-05-24T03:20:12;8.20;;;6.47;;
63189;SDS011;49286;44.460;26.114;2023-05-24T03:22:40;8.50;;;5.38;;
63189;SDS011;49286;44.460;26.114;2023-05-24T03:25:05;9.88;;;6.70;;
63189;SDS011;49286;44.460;26.114;2023-05-24T03:27:32;7.78;;;6.13;;
63189;SDS011;49286;44.460;26.114;2023-05-24T03:29:58;9.07;;;5.13;;
63189;SDS011;49286;44.460;26.114;2023-05-24T03:32:24;9.13;;;5.53;;
63189;SDS011;49286;44.460;26.114;2023-05-24T03:34:49;13.35;;;5.50;;
63189;SDS011;49286;44.460;26.114;2023-05-24T03:37:15;8.48;;;5.20;;
63189;SDS011;49286;44.460;26.114;2023-05-24T03:39:40;15.05;;;5.13;;
63189;SDS011;49286;44.460;26.114;2023-05-24T03:42:06;8.52;;;5.80;;
63189;SDS011;49286;44.460;26.114;2023-05-24T03:44:31;7.00;;;5.45;;
63189;SDS011;49286;44.460;26.114;2023-05-24T03:46:57;7.45;;;5.43;;
63189;SDS011;49286;44.460;26.114;2023-05-24T03:49:22;8.02;;;5.60;;
63189;SDS011;49286;44.460;26.114;2023-05-24T03:51:48;10.80;;;6.60;;
63189;SDS011;49286;44.460;26.114;2023-05-24T03:54:13;12.88;;;6.68;;
63189;SDS011;49286;44.460;26.114;2023-05-24T03:56:39;7.20;;;6.25;;
63189;SDS011;49286;44.460;26.114;2023-05-24T03:59:04;7.78;;;5.63;;
63189;SDS011;49286;44.460;26.114;2023-05-24T04:01:30;11.10;;;6.40;;
63189;SDS011;49286;44.460;26.114;2023-05-24T04:03:58;7.95;;;5.97;;
63189;SDS011;49286;44.460;26.114;2023-05-24T04:06:25;9.23;;;5.97;;
63189;SDS011;49286;44.460;26.114;2023-05-24T04:08:56;10.23;;;6.20;;
63189;SDS011;49286;44.460;26.114;2023-05-24T04:11:23;13.52;;;5.72;;
63189;SDS011;49286;44.460;26.114;2023-05-24T04:13:52;7.88;;;6.00;;
63189;SDS011;49286;44.460;26.114;2023-05-24T04:16:20;9.65;;;5.68;;
63189;SDS011;49286;44.460;26.114;2023-05-24T04:18:52;14.38;;;6.03;;
63189;SDS011;49286;44.460;26.114;2023-05-24T04:21:18;9.25;;;5.80;;
63189;SDS011;49286;44.460;26.114;2023-05-24T04:23:44;9.68;;;5.47;;
63189;SDS011;49286;44.460;26.114;2023-05-24T04:26:10;5.75;;;4.45;;
63189;SDS011;49286;44.460;26.114;2023-05-24T04:28:36;6.95;;;5.20;;
63189;SDS011;49286;44.460;26.114;2023-05-24T04:31:05;8.13;;;5.00;;
63189;SDS011;49286;44.460;26.114;2023-05-24T04:33:34;8.43;;;5.88;;
63189;SDS011;49286;44.460;26.114;2023-05-24T04:36:00;8.02;;;4.68;;
63189;SDS011;49286;44.460;26.114;2023-05-24T04:38:27;7.88;;;5.70;;
63189;SDS011;49286;44.460;26.114;2023-05-24T04:40:56;12.43;;;5.38;;
63189;SDS011;49286;44.460;26.114;2023-05-24T04:43:23;7.00;;;5.95;;
63189;SDS011;49286;44.460;26.114;2023-05-24T04:45:50;8.45;;;5.20;;
63189;SDS011;49286;44.460;26.114;2023-05-24T04:48:16;7.55;;;4.60;;
63189;SDS011;49286;44.460;26.114;2023-05-24T04:50:41;7.95;;;5.15;;
63189;SDS011;49286;44.460;26.114;2023-05-24T04:53:07;10.25;;;5.20;;
63189;SDS011;49286;44.460;26.114;2023-05-24T04:55:33;7.18;;;5.85;;
63189;SDS011;49286;44.460;26.114;2023-05-24T04:57:58;8.57;;;5.53;;
63189;SDS011;49286;44.460;26.114;2023-05-24T05:00:24;7.45;;;5.32;;
63189;SDS011;49286;44.460;26.114;2023-05-24T05:02:49;7.43;;;4.63;;
63189;SDS011;49286;44.460;26.114;2023-05-24T05:05:15;8.55;;;5.90;;
63189;SDS011;49286;44.460;26.114;2023-05-24T05:07:40;10.65;;;5.75;;
63189;SDS011;49286;44.460;26.114;2023-05-24T05:10:06;8.23;;;5.75;;
63189;SDS011;49286;44.460;26.114;2023-05-24T05:12:32;13.43;;;4.80;;
63189;SDS011;49286;44.460;26.114;2023-05-24T05:14:57;7.80;;;5.70;;
63189;SDS011;49286;44.460;26.114;2023-05-24T05:17:22;7.40;;;5.25;;
63189;SDS011;49286;44.460;26.114;2023-05-24T05:19:48;7.55;;;6.05;;
63189;SDS011;49286;44.460;26.114;2023-05-24T05:22:13;9.32;;;6.50;;
63189;SDS011;49286;44.460;26.114;2023-05-24T05:24:40;11.65;;;5.22;;
63189;SDS011;49286;44.460;26.114;2023-05-24T05:27:05;9.88;;;6.07;;
63189;SDS011;49286;44.460;26.114;2023-05-24T05:29:31;10.43;;;6.20;;
63189;SDS011;49286;44.460;26.114;2023-05-24T05:31:56;10.70;;;5.82;;
63189;SDS011;49286;44.460;26.114;2023-05-24T05:34:22;8.40;;;5.68;;
63189;SDS011;49286;44.460;26.114;2023-05-24T05:36:47;7.50;;;4.88;;
63189;SDS011;49286;44.460;26.114;2023-05-24T05:39:13;6.63;;;4.88;;
63189;SDS011;49286;44.460;26.114;2023-05-24T05:41:38;6.93;;;4.72;;
63189;SDS011;49286;44.460;26.114;2023-05-24T05:44:08;9.85;;;4.88;;
63189;SDS011;49286;44.460;26.114;2023-05-24T05:46:33;7.55;;;5.53;;
63189;SDS011;49286;44.460;26.114;2023-05-24T05:48:59;7.68;;;4.95;;
63189;SDS011;49286;44.460;26.114;2023-05-24T05:51:25;7.20;;;5.72;;
63189;SDS011;49286;44.460;26.114;2023-05-24T05:53:50;6.25;;;4.22;;
63189;SDS011;49286;44.460;26.114;2023-05-24T05:56:16;6.53;;;3.83;;
63189;SDS011;49286;44.460;26.114;2023-05-24T05:58:42;10.43;;;4.50;;
63189;SDS011;49286;44.460;26.114;2023-05-24T06:01:07;7.82;;;4.22;;
63189;SDS011;49286;44.460;26.114;2023-05-24T06:03:32;6.13;;;4.32;;
63189;SDS011;49286;44.460;26.114;2023-05-24T06:05:58;8.40;;;4.10;;
63189;SDS011;49286;44.460;26.114;2023-05-24T06:08:23;6.15;;;4.03;;
63189;SDS011;49286;44.460;26.114;2023-05-24T06:10:49;13.15;;;5.65;;
63189;SDS011;49286;44.460;26.114;2023-05-24T06:13:14;8.93;;;3.88;;
63189;SDS011;49286;44.460;26.114;2023-05-24T06:15:40;5.70;;;4.43;;
63189;SDS011;49286;44.460;26.114;2023-05-24T06:18:06;6.55;;;2.95;;
63189;SDS011;49286;44.460;26.114;2023-05-24T06:20:31;5.07;;;3.10;;
63189;SDS011;49286;44.460;26.114;2023-05-24T06:22:56;5.65;;;3.88;;
63189;SDS011;49286;44.460;26.114;2023-05-24T06:25:23;12.20;;;3.50;;
63189;SDS011;49286;44.460;26.114;2023-05-24T06:27:51;9.88;;;5.10;;
63189;SDS011;49286;44.460;26.114;2023-05-24T06:30:16;4.53;;;2.83;;
63189;SDS011;49286;44.460;26.114;2023-05-24T06:32:42;19.88;;;14.70;;
63189;SDS011;49286;44.460;26.114;2023-05-24T06:35:08;98.57;;;54.70;;
63189;SDS011;49286;44.460;26.114;2023-05-24T06:37:34;128.02;;;80.20;;
63189;SDS011;49286;44.460;26.114;2023-05-24T06:40:00;188.23;;;121.53;;
63189;SDS011;49286;44.460;26.114;2023-05-24T06:42:25;284.25;;;172.73;;
63189;SDS011;49286;44.460;26.114;2023-05-24T06:44:51;131.32;;;83.65;;
63189;SDS011;49286;44.460;26.114;2023-05-24T06:47:16;192.85;;;121.30;;
63189;SDS011;49286;44.460;26.114;2023-05-24T06:49:42;10.10;;;9.05;;
63189;SDS011;49286;44.460;26.114;2023-05-24T06:52:07;5.95;;;3.85;;
63189;SDS011;49286;44.460;26.114;2023-05-24T06:54:33;38.28;;;23.02;;
63189;SDS011;49286;44.460;26.114;2023-05-24T06:56:58;203.00;;;112.78;;
63189;SDS011;49286;44.460;26.114;2023-05-24T06:59:24;17.55;;;14.10;;
63189;SDS011;49286;44.460;26.114;2023-05-24T07:01:49;7.40;;;5.70;;
63189;SDS011;49286;44.460;26.114;2023-05-24T07:04:21;5.60;;;3.70;;
63189;SDS011;49286;44.460;26.114;2023-05-24T07:06:47;4.57;;;2.92;;
63189;SDS011;49286;44.460;26.114;2023-05-24T07:09:12;4.32;;;2.80;;
63189;SDS011;49286;44.460;26.114;2023-05-24T07:11:38;9.85;;;6.40;;
63189;SDS011;49286;44.460;26.114;2023-05-24T07:14:05;57.92;;;34.55;;
63189;SDS011;49286;44.460;26.114;2023-05-24T07:16:30;63.30;;;34.20;;
63189;SDS011;49286;44.460;26.114;2023-05-24T07:18:56;7.80;;;5.07;;
63189;SDS011;49286;44.460;26.114;2023-05-24T07:21:22;46.65;;;28.63;;
63189;SDS011;49286;44.460;26.114;2023-05-24T07:23:49;5.18;;;4.28;;
63189;SDS011;49286;44.460;26.114;2023-05-24T07:26:15;9.68;;;3.70;;
63189;SDS011;49286;44.460;26.114;2023-05-24T07:28:41;22.02;;;12.68;;
63189;SDS011;49286;44.460;26.114;2023-05-24T07:31:09;8.02;;;5.40;;
63189;SDS011;49286;44.460;26.114;2023-05-24T07:33:35;6.35;;;3.47;;
63189;SDS011;49286;44.460;26.114;2023-05-24T07:36:04;17.90;;;11.18;;
63189;SDS011;49286;44.460;26.114;2023-05-24T07:38:30;10.23;;;4.47;;
63189;SDS011;49286;44.460;26.114;2023-05-24T07:40:59;5.20;;;2.67;;
63189;SDS011;49286;44.460;26.114;2023-05-24T07:43:27;7.55;;;3.92;;
63189;SDS011;49286;44.460;26.114;2023-05-24T07:45:53;3.05;;;2.38;;
63189;SDS011;49286;44.460;26.114;2023-05-24T07:48:19;9.15;;;4.45;;
63189;SDS011;49286;44.460;26.114;2023-05-24T07:50:45;5.53;;;2.38;;
63189;SDS011;49286;44.460;26.114;2023-05-24T07:53:14;5.40;;;2.38;;
63189;SDS011;49286;44.460;26.114;2023-05-24T07:55:39;3.25;;;2.60;;
63189;SDS011;49286;44.460;26.114;2023-05-24T07:58:05;4.97;;;2.70;;
63189;SDS011;49286;44.460;26.114;2023-05-24T08:00:31;5.70;;;3.50;;
63189;SDS011;49286;44.460;26.114;2023-05-24T08:02:57;5.45;;;2.08;;
63189;SDS011;49286;44.460;26.114;2023-05-24T08:05:23;4.88;;;2.88;;
63189;SDS011;49286;44.460;26.114;2023-05-24T08:07:50;5.85;;;2.55;;
63189;SDS011;49286;44.460;26.114;2023-05-24T08:10:16;3.63;;;1.90;;
63189;SDS011;49286;44.460;26.114;2023-05-24T08:12:42;3.15;;;1.92;;
63189;SDS011;49286;44.460;26.114;2023-05-24T08:15:08;10.65;;;3.28;;
63189;SDS011;49286;44.460;26.114;2023-05-24T08:17:34;3.55;;;1.85;;
63189;SDS011;49286;44.460;26.114;2023-05-24T08:19:59;5.18;;;2.72;;
63189;SDS011;49286;44.460;26.114;2023-05-24T08:22:25;2.42;;;1.75;;
63189;SDS011;49286;44.460;26.114;2023-05-24T08:24:50;4.88;;;2.85;;
63189;SDS011;49286;44.460;26.114;2023-05-24T08:27:16;5.03;;;3.03;;
63189;SDS011;49286;44.460;26.114;2023-05-24T08:29:42;3.10;;;2.10;;
63189;SDS011;49286;44.460;26.114;2023-05-24T08:32:07;3.10;;;2.00;;
63189;SDS011;49286;44.460;26.114;2023-05-24T08:34:36;4.18;;;2.25;;
63189;SDS011;49286;44.460;26.114;2023-05-24T08:37:03;4.07;;;2.33;;
63189;SDS011;49286;44.460;26.114;2023-05-24T08:39:29;3.75;;;2.05;;
63189;SDS011;49286;44.460;26.114;2023-05-24T08:41:55;3.63;;;2.08;;
63189;SDS011;49286;44.460;26.114;2023-05-24T08:44:22;3.50;;;2.30;;
63189;SDS011;49286;44.460;26.114;2023-05-24T08:46:49;4.10;;;2.17;;
63189;SDS011;49286;44.460;26.114;2023-05-24T08:49:15;4.72;;;3.13;;
63189;SDS011;49286;44.460;26.114;2023-05-24T08:51:40;5.47;;;2.83;;
63189;SDS011;49286;44.460;26.114;2023-05-24T08:54:08;3.08;;;2.10;;
63189;SDS011;49286;44.460;26.114;2023-05-24T08:56:36;7.43;;;4.32;;
63189;SDS011;49286;44.460;26.114;2023-05-24T08:59:03;2.50;;;1.63;;
63189;SDS011;49286;44.460;26.114;2023-05-24T09:01:30;12.35;;;1.50;;
63189;SDS011;49286;44.460;26.114;2023-05-24T09:03:56;5.57;;;2.65;;
63189;SDS011;49286;44.460;26.114;2023-05-24T09:06:24;5.28;;;2.40;;
63189;SDS011;49286;44.460;26.114;2023-05-24T09:08:51;3.42;;;2.60;;
63189;SDS011;49286;44.460;26.114;2023-05-24T09:11:18;4.88;;;2.83;;
63189;SDS011;49286;44.460;26.114;2023-05-24T09:13:44;3.42;;;2.45;;
63189;SDS011;49286;44.460;26.114;2023-05-24T09:16:11;3.90;;;2.20;;
63189;SDS011;49286;44.460;26.114;2023-05-24T09:18:38;3.97;;;2.03;;
63189;SDS011;49286;44.460;26.114;2023-05-24T09:21:05;4.55;;;2.38;;
63189;SDS011;49286;44.460;26.114;2023-05-24T09:23:32;3.78;;;1.63;;
63189;SDS011;49286;44.460;26.114;2023-05-24T09:25:58;2.90;;;2.20;;
63189;SDS011;49286;44.460;26.114;2023-05-24T09:28:31;3.58;;;2.13;;
63189;SDS011;49286;44.460;26.114;2023-05-24T09:30:58;4.25;;;2.63;;
63189;SDS011;49286;44.460;26.114;2023-05-24T09:33:31;3.17;;;2.00;;
63189;SDS011;49286;44.460;26.114;2023-05-24T09:35:58;2.95;;;2.10;;
63189;SDS011;49286;44.460;26.114;2023-05-24T09:38:25;4.90;;;2.17;;
63189;SDS011;49286;44.460;26.114;2023-05-24T09:43:28;3.63;;;2.05;;
63189;SDS011;49286;44.460;26.114;2023-05-24T09:46:00;3.03;;;1.85;;
63189;SDS011;49286;44.460;26.114;2023-05-24T09:48:27;4.43;;;2.67;;
63189;SDS011;49286;44.460;26.114;2023-05-24T09:51:12;3.65;;;2.28;;
63189;SDS011;49286;44.460;26.114;2023-05-24T09:53:40;2.38;;;1.15;;
63189;SDS011;49286;44.460;26.114;2023-05-24T09:56:09;4.03;;;2.60;;
63189;SDS011;49286;44.460;26.114;2023-05-24T09:58:34;2.40;;;1.80;;
63189;SDS011;49286;44.460;26.114;2023-05-24T10:01:04;2.75;;;1.73;;
63189;SDS011;49286;44.460;26.114;2023-05-24T10:03:30;7.93;;;2.50;;
63189;SDS011;49286;44.460;26.114;2023-05-24T10:05:56;4.53;;;2.65;;
63189;SDS011;49286;44.460;26.114;2023-05-24T10:08:22;6.30;;;2.88;;
63189;SDS011;49286;44.460;26.114;2023-05-24T10:10:48;3.33;;;1.52;;
63189;SDS011;49286;44.460;26.114;2023-05-24T10:13:13;4.25;;;2.70;;
63189;SDS011;49286;44.460;26.114;2023-05-24T10:15:42;5.63;;;3.08;;
63189;SDS011;49286;44.460;26.114;2023-05-24T10:18:09;4.15;;;2.88;;
63189;SDS011;49286;44.460;26.114;2023-05-24T10:20:34;9.20;;;2.63;;
63189;SDS011;49286;44.460;26.114;2023-05-24T10:23:02;3.60;;;1.67;;
63189;SDS011;49286;44.460;26.114;2023-05-24T10:25:32;4.55;;;2.33;;
63189;SDS011;49286;44.460;26.114;2023-05-24T10:28:00;3.47;;;1.95;;
63189;SDS011;49286;44.460;26.114;2023-05-24T10:33:12;3.85;;;2.10;;
63189;SDS011;49286;44.460;26.114;2023-05-24T10:35:39;3.67;;;1.80;;
63189;SDS011;49286;44.460;26.114;2023-05-24T10:38:06;2.20;;;1.55;;
63189;SDS011;49286;44.460;26.114;2023-05-24T10:40:33;2.55;;;1.77;;
63189;SDS011;49286;44.460;26.114;2023-05-24T10:43:02;2.42;;;1.42;;
63189;SDS011;49286;44.460;26.114;2023-05-24T10:45:33;4.22;;;1.77;;
63189;SDS011;49286;44.460;26.114;2023-05-24T10:50:39;11.18;;;2.53;;
63189;SDS011;49286;44.460;26.114;2023-05-24T10:56:01;4.03;;;2.05;;
63189;SDS011;49286;44.460;26.114;2023-05-24T11:01:24;3.15;;;1.75;;
63189;SDS011;49286;44.460;26.114;2023-05-24T11:04:09;4.70;;;1.50;;
63189;SDS011;49286;44.460;26.114;2023-05-24T11:06:46;3.20;;;1.63;;
63189;SDS011;49286;44.460;26.114;2023-05-24T11:09:19;4.03;;;2.03;;
63189;SDS011;49286;44.460;26.114;2023-05-24T11:11:46;3.00;;;1.85;;
63189;SDS011;49286;44.460;26.114;2023-05-24T11:14:21;4.38;;;1.65;;
63189;SDS011;49286;44.460;26.114;2023-05-24T11:16:48;2.10;;;1.20;;
63189;SDS011;49286;44.460;26.114;2023-05-24T11:19:19;2.45;;;1.23;;
63189;SDS011;49286;44.460;26.114;2023-05-24T11:21:49;3.33;;;2.40;;
63189;SDS011;49286;44.460;26.114;2023-05-24T11:24:17;2.95;;;1.38;;
63189;SDS011;49286;44.460;26.114;2023-05-24T11:26:43;2.63;;;1.25;;
63189;SDS011;49286;44.460;26.114;2023-05-24T11:29:11;4.20;;;1.65;;
63189;SDS011;49286;44.460;26.114;2023-05-24T11:31:45;2.63;;;1.42;;
63189;SDS011;49286;44.460;26.114;2023-05-24T11:34:11;1.23;;;0.77;;
63189;SDS011;49286;44.460;26.114;2023-05-24T11:36:37;3.75;;;1.25;;
63189;SDS011;49286;44.460;26.114;2023-05-24T11:39:30;3.38;;;1.63;;
63189;SDS011;49286;44.460;26.114;2023-05-24T11:41:55;2.95;;;1.50;;
63189;SDS011;49286;44.460;26.114;2023-05-24T11:57:15;1.60;;;1.05;;
63189;SDS011;49286;44.460;26.114;2023-05-24T11:59:43;1.88;;;1.08;;
63189;SDS011;49286;44.460;26.114;2023-05-24T12:02:09;3.42;;;2.28;;
63189;SDS011;49286;44.460;26.114;2023-05-24T12:04:34;3.45;;;1.67;;
63189;SDS011;49286;44.460;26.114;2023-05-24T12:07:00;4.43;;;1.80;;
63189;SDS011;49286;44.460;26.114;2023-05-24T12:09:26;1.85;;;1.13;;
63189;SDS011;49286;44.460;26.114;2023-05-24T12:11:52;3.10;;;1.63;;
63189;SDS011;49286;44.460;26.114;2023-05-24T12:14:19;3.35;;;2.00;;
63189;SDS011;49286;44.460;26.114;2023-05-24T12:16:52;1.67;;;1.08;;
63189;SDS011;49286;44.460;26.114;2023-05-24T12:19:20;2.28;;;1.30;;
63189;SDS011;49286;44.460;26.114;2023-05-24T12:21:46;2.42;;;1.45;;
63189;SDS011;49286;44.460;26.114;2023-05-24T12:24:13;1.90;;;1.00;;
63189;SDS011;49286;44.460;26.114;2023-05-24T12:26:43;1.73;;;1.13;;
63189;SDS011;49286;44.460;26.114;2023-05-24T12:29:10;2.38;;;0.90;;
63189;SDS011;49286;44.460;26.114;2023-05-24T12:31:39;2.08;;;1.08;;
63189;SDS011;49286;44.460;26.114;2023-05-24T12:34:06;2.85;;;1.42;;
63189;SDS011;49286;44.460;26.114;2023-05-24T12:36:36;2.65;;;1.05;;
63189;SDS011;49286;44.460;26.114;2023-05-24T12:41:51;1.85;;;1.13;;
63189;SDS011;49286;44.460;26.114;2023-05-24T12:44:24;1.83;;;1.00;;
63189;SDS011;49286;44.460;26.114;2023-05-24T12:46:52;1.50;;;1.00;;
63189;SDS011;49286;44.460;26.114;2023-05-24T12:49:18;3.53;;;1.40;;
63189;SDS011;49286;44.460;26.114;2023-05-24T12:51:44;1.63;;;0.85;;
63189;SDS011;49286;44.460;26.114;2023-05-24T12:54:09;1.33;;;0.90;;
63189;SDS011;49286;44.460;26.114;2023-05-24T12:56:35;2.88;;;1.10;;
63189;SDS011;49286;44.460;26.114;2023-05-24T12:59:00;1.33;;;0.85;;
63189;SDS011;49286;44.460;26.114;2023-05-24T13:01:26;1.77;;;0.77;;
63189;SDS011;49286;44.460;26.114;2023-05-24T13:03:52;1.27;;;0.68;;
63189;SDS011;49286;44.460;26.114;2023-05-24T13:06:18;1.00;;;0.63;;
63189;SDS011;49286;44.460;26.114;2023-05-24T13:08:43;1.75;;;1.00;;
63189;SDS011;49286;44.460;26.114;2023-05-24T13:11:09;2.47;;;1.17;;
63189;SDS011;49286;44.460;26.114;2023-05-24T13:13:35;2.17;;;0.82;;
63189;SDS011;49286;44.460;26.114;2023-05-24T13:16:02;1.55;;;0.93;;
63189;SDS011;49286;44.460;26.114;2023-05-24T13:18:31;1.70;;;0.80;;
63189;SDS011;49286;44.460;26.114;2023-05-24T13:20:57;2.22;;;1.00;;
63189;SDS011;49286;44.460;26.114;2023-05-24T13:23:24;2.08;;;0.90;;
63189;SDS011;49286;44.460;26.114;2023-05-24T13:25:53;2.53;;;1.38;;
63189;SDS011;49286;44.460;26.114;2023-05-24T13:28:18;7.53;;;1.45;;
63189;SDS011;49286;44.460;26.114;2023-05-24T13:30:45;3.55;;;1.77;;
63189;SDS011;49286;44.460;26.114;2023-05-24T13:33:11;2.60;;;1.45;;
63189;SDS011;49286;44.460;26.114;2023-05-24T13:35:37;1.17;;;0.63;;
63189;SDS011;49286;44.460;26.114;2023-05-24T13:38:03;2.25;;;1.38;;
63189;SDS011;49286;44.460;26.114;2023-05-24T13:40:29;1.65;;;0.88;;
63189;SDS011;49286;44.460;26.114;2023-05-24T13:42:55;1.83;;;1.05;;
63189;SDS011;49286;44.460;26.114;2023-05-24T13:45:22;1.60;;;0.95;;
63189;SDS011;49286;44.460;26.114;2023-05-24T13:47:47;10.45;;;1.85;;
63189;SDS011;49286;44.460;26.114;2023-05-24T13:50:13;1.80;;;0.88;;
63189;SDS011;49286;44.460;26.114;2023-05-24T13:52:39;2.03;;;0.75;;
63189;SDS011;49286;44.460;26.114;2023-05-24T13:55:04;1.88;;;0.82;;
63189;SDS011;49286;44.460;26.114;2023-05-24T13:57:30;3.40;;;1.85;;
63189;SDS011;49286;44.460;26.114;2023-05-24T13:59:57;2.90;;;0.90;;
63189;SDS011;49286;44.460;26.114;2023-05-24T14:02:24;2.00;;;0.88;;
63189;SDS011;49286;44.460;26.114;2023-05-24T14:04:50;1.85;;;1.05;;
63189;SDS011;49286;44.460;26.114;2023-05-24T14:07:16;2.85;;;1.45;;
63189;SDS011;49286;44.460;26.114;2023-05-24T14:09:43;2.30;;;1.27;;
63189;SDS011;49286;44.460;26.114;2023-05-24T14:12:09;2.17;;;1.05;;
63189;SDS011;49286;44.460;26.114;2023-05-24T14:14:34;1.20;;;1.00;;
63189;SDS011;49286;44.460;26.114;2023-05-24T14:17:00;1.27;;;0.80;;
63189;SDS011;49286;44.460;26.114;2023-05-24T14:19:25;2.78;;;1.33;;
63189;SDS011;49286;44.460;26.114;2023-05-24T14:21:51;1.67;;;0.90;;
63189;SDS011;49286;44.460;26.114;2023-05-24T14:24:17;1.65;;;0.90;;
63189;SDS011;49286;44.460;26.114;2023-05-24T14:26:42;2.63;;;1.05;;
63189;SDS011;49286;44.460;26.114;2023-05-24T14:29:08;2.08;;;1.30;;
63189;SDS011;49286;44.460;26.114;2023-05-24T14:31:33;2.47;;;1.00;;
63189;SDS011;49286;44.460;26.114;2023-05-24T14:34:06;1.48;;;1.00;;
63189;SDS011;49286;44.460;26.114;2023-05-24T14:36:33;3.00;;;1.35;;
63189;SDS011;49286;44.460;26.114;2023-05-24T14:38:58;2.65;;;1.35;;
63189;SDS011;49286;44.460;26.114;2023-05-24T14:41:24;1.98;;;0.82;;
63189;SDS011;49286;44.460;26.114;2023-05-24T14:43:50;1.98;;;1.15;;
63189;SDS011;49286;44.460;26.114;2023-05-24T14:46:16;3.10;;;1.15;;
63189;SDS011;49286;44.460;26.114;2023-05-24T14:48:41;1.83;;;0.90;;
63189;SDS011;49286;44.460;26.114;2023-05-24T14:51:07;1.88;;;1.10;;
63189;SDS011;49286;44.460;26.114;2023-05-24T14:53:32;1.60;;;0.90;;
63189;SDS011;49286;44.460;26.114;2023-05-24T14:55:57;2.70;;;0.98;;
63189;SDS011;49286;44.460;26.114;2023-05-24T14:58:23;1.58;;;1.05;;
63189;SDS011;49286;44.460;26.114;2023-05-24T15:00:49;2.40;;;1.08;;
63189;SDS011;49286;44.460;26.114;2023-05-24T15:03:15;3.25;;;0.60;;
63189;SDS011;49286;44.460;26.114;2023-05-24T15:05:40;2.65;;;1.08;;
63189;SDS011;49286;44.460;26.114;2023-05-24T15:08:07;1.95;;;0.93;;
63189;SDS011;49286;44.460;26.114;2023-05-24T15:10:33;1.92;;;0.80;;
63189;SDS011;49286;44.460;26.114;2023-05-24T15:12:58;1.00;;;0.73;;
63189;SDS011;49286;44.460;26.114;2023-05-24T15:15:25;1.35;;;0.70;;
63189;SDS011;49286;44.460;26.114;2023-05-24T15:17:51;1.90;;;0.93;;